This is the latest recevied weather packets stored in our database for station/object W8MRL. If no packets are shown the sender has not sent any weather packets the latest 1 day(s).
| Time | Temp. | Humidity | Pressure | Rain* | Wind** | Luminosity | Snow |
|---|---|---|---|---|---|---|---|
| 1778002203 | 18.89° C | 75% | 1011.9 hPa | 0 mm | 1.34 m/s, 200° | - | - |
| 1778001303 | 18.89° C | 75% | 1012.1 hPa | 0 mm | 1.34 m/s, 191° | - | - |
| 1778000402 | 18.33° C | 76% | 1012.1 hPa | 0 mm | 2.24 m/s, 204° | - | - |
| 1777999621 | 18.33° C | 77% | 1012.1 hPa | 0 mm | 0.89 m/s, 202° | - | - |
| 1777998664 | 18.33° C | 76% | 1012.1 hPa | 0 mm | 0.45 m/s, 187° | - | - |
| 1777997770 | 18.33° C | 76% | 1012.3 hPa | 0 mm | 0.45 m/s, 210° | - | - |
| 1777996860 | 18.89° C | 75% | 1012.4 hPa | 0 mm | 1.34 m/s, 209° | - | - |
| 1777995958 | 18.89° C | 76% | 1012.2 hPa | 0 mm | 1.79 m/s, 194° | - | - |
| 1777995058 | 18.89° C | 76% | 1012 hPa | 0 mm | 2.24 m/s, 210° | - | - |
| 1777994157 | 18.89° C | 78% | 1012 hPa | 0 mm | 1.34 m/s, 185° | - | - |
| 1777993266 | 18.33° C | 79% | 1012.1 hPa | 0 mm | 1.79 m/s, 212° | - | - |
| 1777992357 | 18.33° C | 80% | 1011.9 hPa | 0 mm | 1.79 m/s, 212° | - | - |
| 1777991455 | 17.78° C | 82% | 1011.7 hPa | 0 mm | 1.34 m/s, 207° | - | - |
| 1777990554 | 17.22° C | 84% | 1011.7 hPa | 0 mm | 0.89 m/s, 205° | - | - |
| 1777989659 | 16.67° C | 87% | 1011.8 hPa | 0 mm | 0.45 m/s, 224° | - | - |
| 1777988752 | 16.11° C | 90% | 1011.7 hPa | 0 mm | 0 m/s | - | - |
| 1777987852 | 15.56° C | 92% | 1011.2 hPa | 0 mm | 0 m/s | - | - |
| 1777986958 | 15° C | 94% | 1011.1 hPa | 0.25 mm | 0.45 m/s, 210° | - | - |
| 1777986064 | 14.44° C | 95% | 1011.1 hPa | 0.25 mm | 0 m/s | - | - |
| 1777985153 | 13.89° C | 96% | 1011.5 hPa | 0.51 mm | 0.45 m/s, 202° | - | - |
| 1777984249 | 13.89° C | 96% | 1011.4 hPa | 0.76 mm | 0 m/s | - | - |
| 1777983349 | 13.33° C | 96% | 1011.6 hPa | 0.51 mm | 0.45 m/s, 169° | - | - |
| 1777982449 | 13.33° C | 96% | 1011.7 hPa | 0.51 mm | 0 m/s | - | - |
| 1777981550 | 13.33° C | 95% | 1011.5 hPa | 0.25 mm | 0 m/s | - | - |
| 1777980646 | 12.78° C | 95% | 1011.3 hPa | 0 mm | 0 m/s | - | - |
* Rain latest hour (hover to see other rain measurements)
** Current wind speed in m/s (hover to see current wind gust speed)